Time;durP1;ratioP1;P1;durP2;ratioP2;P2;SDS_P1;SDS_P2;PMS_P1;PMS_P2;Temp;Humidity;BMP_temperature;BMP_pressure;BME280_temperature;BME280_humidity;BME280_pressure;Samples;Min_cycle;Max_cycle;Signal;HPM_P1;HPM_P2
2023/11/07 00:00:45;;;;;;;2.88;1.70;;;13.80;59.50;;;;;;6263647;28;20455;-69
2023/11/07 00:03:46;;;;;;;7.32;3.17;;;13.80;59.50;;;;;;6263712;28;20037;-68
2023/11/07 00:06:48;;;;;;;5.25;2.40;;;13.70;59.50;;;;;;6261232;28;20040;-70
2023/11/07 00:09:50;;;;;;;3.20;2.25;;;13.70;59.70;;;;;;6138451;28;20031;-69
2023/11/07 00:12:51;;;;;;;4.97;2.08;;;13.70;59.80;;;;;;6240211;28;20116;-70
2023/11/07 00:15:51;;;;;;;3.72;1.60;;;13.70;59.90;;;;;;6265313;28;20144;-69
2023/11/07 00:18:52;;;;;;;3.03;1.80;;;13.70;60.00;;;;;;6265401;28;20044;-68
2023/11/07 00:21:54;;;;;;;6.70;1.80;;;13.60;59.90;;;;;;6264789;28;20448;-69
2023/11/07 00:24:55;;;;;;;5.43;2.35;;;13.50;60.00;;;;;;6265136;28;20116;-68
2023/11/07 00:27:55;;;;;;;3.55;2.10;;;13.50;60.30;;;;;;6264513;28;20516;-69
2023/11/07 00:30:56;;;;;;;5.65;3.60;;;13.40;60.50;;;;;;6240978;28;20023;-68
2023/11/07 00:33:57;;;;;;;5.90;2.90;;;13.40;60.70;;;;;;6138538;28;20576;-67
2023/11/07 00:36:58;;;;;;;4.50;2.45;;;13.40;60.90;;;;;;6140431;28;20035;-69
2023/11/07 00:40:00;;;;;;;4.65;2.35;;;13.40;61.10;;;;;;6139889;28;20553;-70
2023/11/07 00:43:00;;;;;;;7.40;3.63;;;13.40;61.40;;;;;;6142907;28;20388;-67
2023/11/07 00:46:03;;;;;;;6.80;3.20;;;13.30;61.60;;;;;;6142608;28;20133;-67
2023/11/07 00:49:05;;;;;;;6.03;3.50;;;13.20;61.90;;;;;;6138334;28;20039;-69
2023/11/07 00:52:06;;;;;;;9.30;3.80;;;13.20;62.30;;;;;;6138173;28;20039;-68
2023/11/07 00:55:08;;;;;;;6.82;3.63;;;13.10;62.40;;;;;;6137710;29;20038;-68
2023/11/07 00:58:09;;;;;;;5.97;2.78;;;13.10;62.70;;;;;;6138565;28;20035;-69
2023/11/07 01:01:10;;;;;;;8.35;3.38;;;13.00;62.80;;;;;;6139474;28;20070;-69
2023/11/07 01:04:11;;;;;;;23.70;3.92;;;13.00;63.10;;;;;;6137694;29;20035;-69
2023/11/07 01:07:12;;;;;;;7.82;3.35;;;13.00;63.10;;;;;;6137968;28;20027;-68
2023/11/07 01:10:13;;;;;;;5.30;3.22;;;13.00;63.30;;;;;;6138866;28;20024;-67
2023/11/07 01:13:15;;;;;;;8.73;3.53;;;12.90;63.20;;;;;;6137304;28;20491;-70
2023/11/07 01:16:16;;;;;;;6.53;3.42;;;12.90;63.50;;;;;;6137627;28;20042;-69
2023/11/07 01:19:18;;;;;;;10.60;4.22;;;12.90;63.40;;;;;;6138780;29;20444;-68
2023/11/07 01:22:20;;;;;;;8.70;3.33;;;12.90;63.50;;;;;;6138990;28;20066;-68
2023/11/07 01:25:21;;;;;;;7.45;2.88;;;12.90;63.60;;;;;;6139060;28;20770;-67
2023/11/07 01:28:22;;;;;;;10.15;3.55;;;12.90;63.60;;;;;;6138875;28;20027;-68
2023/11/07 01:31:23;;;;;;;9.00;3.05;;;12.80;63.60;;;;;;6139994;28;20112;-68
2023/11/07 01:34:24;;;;;;;3.45;2.20;;;12.80;63.60;;;;;;6137694;28;20126;-69
2023/11/07 01:37:25;;;;;;;2.42;1.90;;;12.80;63.70;;;;;;6138041;28;20150;-70
2023/11/07 01:40:25;;;;;;;4.97;2.45;;;12.70;63.80;;;;;;6137291;29;20081;-69
2023/11/07 01:43:27;;;;;;;10.75;2.22;;;12.60;64.00;;;;;;6137863;28;20046;-68
2023/11/07 01:46:28;;;;;;;4.25;2.40;;;12.50;64.10;;;;;;6138690;28;20162;-67
2023/11/07 01:49:29;;;;;;;4.00;2.10;;;12.50;64.20;;;;;;6138144;28;20039;-69
2023/11/07 01:52:30;;;;;;;3.30;2.10;;;12.40;64.20;;;;;;6129415;28;20379;-70
2023/11/07 01:55:32;;;;;;;5.45;2.15;;;12.40;64.30;;;;;;6137127;29;20126;-69
2023/11/07 01:58:34;;;;;;;4.63;1.95;;;12.40;64.40;;;;;;6136916;28;20035;-68
2023/11/07 02:01:39;;;;;;;3.10;1.52;;;12.40;64.40;;;;;;6136076;29;20068;-68
2023/11/07 02:04:40;;;;;;;7.85;1.65;;;12.40;64.50;;;;;;6138527;28;20479;-67
2023/11/07 02:07:43;;;;;;;4.63;1.63;;;12.30;64.30;;;;;;6138313;28;20114;-69
2023/11/07 02:10:44;;;;;;;2.70;1.50;;;12.40;64.20;;;;;;6150929;28;20115;-68
2023/11/07 02:13:48;;;;;;;2.60;1.30;;;12.40;64.20;;;;;;6266669;28;20115;-68
2023/11/07 02:16:49;;;;;;;2.13;1.10;;;12.40;64.10;;;;;;6266137;28;20033;-68
2023/11/07 02:19:50;;;;;;;4.80;1.15;;;12.40;64.10;;;;;;6263621;28;20021;-67
2023/11/07 02:23:24;;;;;;;1.65;1.17;;;12.40;64.10;;;;;;6141814;28;20730;-69
2023/11/07 02:26:25;;;;;;;1.30;1.13;;;12.40;64.10;;;;;;6142798;28;20043;-69
2023/11/07 02:29:28;;;;;;;4.90;1.92;;;12.40;64.00;;;;;;6142028;28;20031;-68
2023/11/07 02:32:29;;;;;;;6.05;1.90;;;12.40;64.10;;;;;;6141920;28;20031;-70
2023/11/07 02:35:31;;;;;;;5.45;2.60;;;12.40;64.20;;;;;;6140375;28;20038;-68
2023/11/07 02:38:32;;;;;;;6.22;3.00;;;12.50;64.40;;;;;;6140661;28;20031;-68
2023/11/07 02:41:36;;;;;;;7.55;3.05;;;12.50;64.40;;;;;;6141644;28;20392;-67
2023/11/07 02:44:37;;;;;;;11.35;3.22;;;12.50;64.50;;;;;;6140046;28;20368;-69
2023/11/07 02:47:38;;;;;;;7.47;3.42;;;12.50;64.60;;;;;;6141439;28;20704;-68
2023/11/07 02:50:39;;;;;;;5.97;3.05;;;12.50;64.50;;;;;;6139739;28;20023;-69
2023/11/07 02:53:39;;;;;;;4.45;2.45;;;12.50;64.70;;;;;;6139703;28;20035;-68
2023/11/07 02:56:42;;;;;;;5.53;2.88;;;12.40;64.70;;;;;;6141898;28;20456;-68
2023/11/07 02:59:46;;;;;;;7.57;2.83;;;12.30;64.90;;;;;;6142707;28;20024;-67
2023/11/07 03:02:53;;;;;;;5.57;2.72;;;12.30;65.30;;;;;;6185939;28;20033;-68
2023/11/07 03:05:54;;;;;;;4.95;2.17;;;12.10;65.40;;;;;;6267072;28;20431;-68
2023/11/07 03:08:55;;;;;;;11.13;2.47;;;12.20;65.60;;;;;;6267185;28;20430;-68
2023/11/07 03:11:56;;;;;;;4.35;2.20;;;12.30;65.60;;;;;;6204436;28;20079;-67
2023/11/07 03:14:57;;;;;;;5.15;2.50;;;12.30;65.40;;;;;;6123756;28;20054;-70
2023/11/07 03:17:58;;;;;;;10.68;2.65;;;12.30;65.30;;;;;;6140720;28;20089;-71
2023/11/07 03:20:59;;;;;;;7.03;2.67;;;12.30;65.10;;;;;;6141026;28;20043;-67
2023/11/07 03:24:03;;;;;;;3.53;2.13;;;12.30;65.10;;;;;;6139158;28;20054;-68
2023/11/07 03:27:04;;;;;;;4.90;2.30;;;12.30;65.00;;;;;;6139331;28;20043;-68
2023/11/07 03:30:06;;;;;;;4.88;2.95;;;12.40;65.20;;;;;;6140968;29;20031;-68
2023/11/07 03:33:07;;;;;;;7.53;2.55;;;12.40;66.00;;;;;;6139339;28;20420;-68
2023/11/07 03:36:08;;;;;;;4.93;2.53;;;12.30;65.10;;;;;;6123813;28;20153;-68
2023/11/07 03:39:09;;;;;;;3.05;2.10;;;12.30;65.20;;;;;;6139388;29;20038;-69
2023/11/07 03:42:10;;;;;;;6.32;3.15;;;12.30;65.20;;;;;;6140728;28;20172;-69
2023/11/07 03:45:11;;;;;;;8.32;3.03;;;12.40;65.30;;;;;;6138933;28;20031;-69
2023/11/07 03:48:12;;;;;;;8.13;2.80;;;12.40;65.30;;;;;;6122976;28;20341;-69
2023/11/07 03:51:13;;;;;;;5.88;2.65;;;12.40;65.10;;;;;;6139006;29;20027;-69
2023/11/07 03:54:14;;;;;;;6.82;2.97;;;12.40;65.30;;;;;;6138902;28;20705;-70
2023/11/07 03:57:14;;;;;;;6.35;2.88;;;12.40;65.10;;;;;;6140679;28;20042;-70
2023/11/07 04:00:16;;;;;;;5.25;3.17;;;12.40;65.20;;;;;;6140325;28;20083;-69
2023/11/07 04:03:16;;;;;;;6.22;3.08;;;12.50;65.30;;;;;;6203157;28;20481;-69
2023/11/07 04:06:18;;;;;;;5.18;2.10;;;12.50;65.10;;;;;;6265286;28;20128;-68
2023/11/07 04:09:19;;;;;;;7.18;2.75;;;12.50;65.00;;;;;;6263851;28;20036;-68
2023/11/07 04:12:20;;;;;;;5.20;2.85;;;12.50;64.90;;;;;;6265029;28;20033;-67
2023/11/07 04:15:22;;;;;;;9.60;2.97;;;12.50;64.80;;;;;;6246830;28;20154;-70
2023/11/07 04:18:23;;;;;;;3.83;2.08;;;12.50;64.90;;;;;;6264601;28;20036;-68
2023/11/07 04:21:24;;;;;;;8.68;2.95;;;12.50;64.80;;;;;;6263161;28;20100;-69
2023/11/07 04:24:27;;;;;;;5.47;3.38;;;12.50;64.90;;;;;;6264746;28;20055;-67
2023/11/07 04:27:27;;;;;;;5.03;2.67;;;12.50;64.90;;;;;;6264895;28;20037;-69
2023/11/07 04:30:28;;;;;;;5.60;2.50;;;12.50;64.80;;;;;;6226704;28;20036;-66
2023/11/07 04:33:33;;;;;;;5.13;2.78;;;12.50;64.80;;;;;;6139507;28;20462;-69
2023/11/07 04:36:34;;;;;;;10.73;2.80;;;12.50;64.70;;;;;;6138991;28;20370;-69
2023/11/07 04:39:35;;;;;;;7.53;2.65;;;12.60;64.70;;;;;;6139882;28;20035;-68
2023/11/07 04:42:36;;;;;;;6.65;2.80;;;12.50;64.70;;;;;;6140316;28;20047;-67
2023/11/07 04:45:38;;;;;;;4.70;2.17;;;12.50;64.80;;;;;;6139864;28;20424;-69
2023/11/07 04:48:39;;;;;;;3.33;2.05;;;12.50;65.00;;;;;;6141253;28;20114;-68
2023/11/07 04:51:42;;;;;;;3.88;2.50;;;12.50;65.00;;;;;;6147924;28;20027;-68
2023/11/07 04:54:43;;;;;;;11.10;2.47;;;12.50;65.00;;;;;;6146852;28;20065;-69
2023/11/07 04:57:49;;;;;;;3.83;2.40;;;12.50;64.90;;;;;;6145546;28;20028;-69
2023/11/07 05:00:52;;;;;;;4.40;2.03;;;12.50;65.00;;;;;;6138849;29;20031;-67
2023/11/07 05:03:57;;;;;;;3.30;1.50;;;12.50;65.00;;;;;;6139818;28;20324;-69
2023/11/07 05:06:59;;;;;;;2.20;1.42;;;12.60;64.90;;;;;;6139866;28;20357;-68
2023/11/07 05:10:00;;;;;;;2.42;1.08;;;12.60;64.50;;;;;;6138081;28;20097;-68
2023/11/07 05:13:01;;;;;;;6.20;1.48;;;12.60;64.20;;;;;;6245153;28;20112;-69
2023/11/07 05:16:02;;;;;;;3.83;1.00;;;12.60;63.50;;;;;;6262972;28;20017;-67
2023/11/07 05:19:04;;;;;;;7.55;1.65;;;12.60;63.30;;;;;;6264567;28;20035;-69
2023/11/07 05:22:04;;;;;;;2.65;1.60;;;12.60;63.00;;;;;;6264470;28;20037;-71
2023/11/07 05:25:07;;;;;;;3.13;1.38;;;12.60;62.80;;;;;;6246514;28;20499;-68
2023/11/07 05:28:07;;;;;;;3.22;1.67;;;12.60;62.50;;;;;;6263968;28;20095;-68
2023/11/07 05:31:10;;;;;;;1.90;1.20;;;12.60;62.40;;;;;;6233373;28;20031;-67
2023/11/07 05:34:10;;;;;;;6.90;1.75;;;12.50;62.40;;;;;;6137665;28;20455;-67
2023/11/07 05:37:11;;;;;;;1.25;1.10;;;12.50;62.40;;;;;;6139626;28;20104;-68
2023/11/07 05:40:13;;;;;;;3.00;1.50;;;12.50;61.90;;;;;;6137907;28;20031;-68
2023/11/07 05:43:14;;;;;;;4.40;2.08;;;12.40;61.90;;;;;;6137691;28;20818;-68
2023/11/07 05:46:17;;;;;;;8.40;1.70;;;12.40;61.60;;;;;;6140834;28;20023;-71
2023/11/07 05:49:18;;;;;;;3.25;1.42;;;12.30;61.50;;;;;;6143316;29;20047;-69
2023/11/07 05:52:19;;;;;;;2.42;1.50;;;12.30;61.70;;;;;;6141969;28;20031;-70
2023/11/07 05:55:21;;;;;;;13.77;1.65;;;12.30;61.90;;;;;;6143165;28;20047;-68
2023/11/07 05:58:22;;;;;;;7.07;1.98;;;12.30;62.10;;;;;;6125242;28;20129;-70
2023/11/07 06:01:23;;;;;;;2.88;1.13;;;12.30;62.00;;;;;;6141757;29;20084;-69
2023/11/07 06:04:36;;;;;;;2.97;1.02;;;12.30;61.80;;;;;;6141256;29;20498;-68
2023/11/07 06:07:37;;;;;;;5.68;1.30;;;12.30;61.60;;;;;;6141270;28;20129;-70
2023/11/07 06:10:38;;;;;;;2.50;1.20;;;12.20;61.50;;;;;;6150451;28;20130;-70
2023/11/07 06:13:39;;;;;;;2.45;1.40;;;12.20;61.50;;;;;;6166848;28;20366;-68
2023/11/07 06:16:40;;;;;;;3.13;1.27;;;12.20;61.50;;;;;;6141797;28;20063;-70
2023/11/07 06:19:41;;;;;;;3.42;1.35;;;12.20;61.50;;;;;;6124948;28;20054;-69
2023/11/07 06:22:42;;;;;;;3.47;1.35;;;12.20;61.50;;;;;;6142438;28;20023;-68
2023/11/07 06:25:43;;;;;;;5.55;1.17;;;12.10;61.50;;;;;;6141190;29;20483;-68
2023/11/07 06:28:45;;;;;;;3.25;1.40;;;12.10;61.60;;;;;;6140717;28;20032;-68
2023/11/07 06:31:46;;;;;;;3.00;1.40;;;12.10;61.60;;;;;;6134769;28;20027;-68
2023/11/07 06:34:46;;;;;;;1.60;1.20;;;12.10;61.70;;;;;;6140588;28;20035;-70
2023/11/07 06:37:48;;;;;;;4.03;1.42;;;12.00;61.80;;;;;;6140391;28;20062;-68
2023/11/07 06:40:49;;;;;;;2.53;1.23;;;11.90;62.00;;;;;;6141868;28;20023;-69
2023/11/07 06:43:51;;;;;;;3.33;1.33;;;11.90;62.20;;;;;;6140498;28;20101;-70
2023/11/07 06:46:52;;;;;;;2.67;1.38;;;11.80;62.30;;;;;;6141635;28;20105;-69
2023/11/07 06:49:56;;;;;;;3.30;1.35;;;11.90;62.50;;;;;;6142239;28;20034;-70
2023/11/07 06:53:00;;;;;;;5.00;1.30;;;11.90;62.40;;;;;;6140349;28;20111;-69
2023/11/07 06:56:01;;;;;;;7.07;1.83;;;11.90;62.40;;;;;;6140189;29;20031;-70
2023/11/07 06:59:01;;;;;;;8.57;1.42;;;11.90;62.30;;;;;;6124147;28;20510;-71
2023/11/07 07:02:03;;;;;;;2.60;1.30;;;11.90;62.30;;;;;;6151974;28;20139;-69
2023/11/07 07:05:04;;;;;;;2.88;1.48;;;11.90;62.30;;;;;;6265733;28;20162;-70
2023/11/07 07:08:07;;;;;;;3.00;1.80;;;11.90;62.30;;;;;;6267017;28;20638;-69
2023/11/07 07:11:09;;;;;;;2.85;1.27;;;12.00;62.30;;;;;;6265202;28;20526;-69
2023/11/07 07:14:10;;;;;;;5.60;1.70;;;12.00;62.10;;;;;;6265545;28;20044;-68
2023/11/07 07:17:14;;;;;;;9.20;1.75;;;12.00;61.80;;;;;;6267471;28;20048;-70
2023/11/07 07:20:18;;;;;;;2.47;1.38;;;12.00;61.80;;;;;;6266649;28;20469;-68
2023/11/07 07:23:24;;;;;;;3.15;1.33;;;12.10;61.70;;;;;;6266935;28;20496;-68
2023/11/07 07:26:27;;;;;;;2.85;1.80;;;12.20;61.60;;;;;;6166057;28;20035;-69
2023/11/07 07:29:29;;;;;;;4.80;1.60;;;12.30;61.30;;;;;;6140393;28;20042;-69
2023/11/07 07:32:30;;;;;;;6.47;1.63;;;12.40;60.90;;;;;;6140220;29;20680;-71
2023/11/07 07:35:32;;;;;;;1.60;1.50;;;12.40;59.80;;;;;;6141874;28;20030;-69
2023/11/07 07:38:36;;;;;;;3.75;1.73;;;12.50;59.60;;;;;;6141058;28;20038;-69
2023/11/07 07:41:38;;;;;;;7.70;1.77;;;12.50;59.60;;;;;;6139646;28;20038;-69
2023/11/07 07:44:39;;;;;;;6.35;2.55;;;12.50;59.60;;;;;;6141512;28;20058;-70
2023/11/07 07:47:41;;;;;;;5.35;2.40;;;12.60;59.60;;;;;;6139788;29;20489;-68
2023/11/07 07:50:42;;;;;;;4.97;2.47;;;12.70;59.50;;;;;;6138768;28;20043;-69
2023/11/07 07:53:43;;;;;;;11.77;1.83;;;12.80;59.30;;;;;;6141660;28;20044;-68
2023/11/07 07:56:48;;;;;;;4.45;1.77;;;12.90;59.00;;;;;;6139061;28;20142;-70
2023/11/07 07:59:49;;;;;;;2.72;1.60;;;13.10;58.90;;;;;;6139145;28;20061;-69
2023/11/07 08:02:53;;;;;;;2.70;1.52;;;13.20;58.50;;;;;;6139112;28;20043;-69
2023/11/07 08:05:54;;;;;;;2.03;1.38;;;13.30;58.40;;;;;;6140177;28;20028;-70
2023/11/07 08:08:55;;;;;;;5.00;1.75;;;13.40;58.20;;;;;;6138875;28;20093;-69
2023/11/07 08:11:56;;;;;;;2.25;1.52;;;13.60;58.00;;;;;;6138659;29;20225;-68
2023/11/07 08:14:57;;;;;;;4.85;1.38;;;13.70;57.70;;;;;;6140183;28;20027;-68
2023/11/07 08:17:58;;;;;;;1.25;0.80;;;13.90;57.40;;;;;;6138466;29;20438;-72
2023/11/07 08:20:59;;;;;;;7.40;1.35;;;14.10;57.00;;;;;;6139968;28;20426;-69
2023/11/07 08:24:00;;;;;;;2.97;1.17;;;14.30;56.50;;;;;;6140051;28;20106;-72
2023/11/07 08:27:01;;;;;;;1.88;1.08;;;14.40;56.40;;;;;;6139798;28;20050;-70
2023/11/07 08:30:02;;;;;;;2.67;1.17;;;14.60;56.20;;;;;;6139870;28;20068;-68
2023/11/07 08:33:03;;;;;;;6.68;1.33;;;14.70;55.90;;;;;;6140370;28;20031;-68
2023/11/07 08:36:04;;;;;;;4.30;1.95;;;14.80;55.50;;;;;;6141718;28;20054;-69
2023/11/07 08:39:23;;;;;;;5.30;1.70;;;14.90;55.10;;;;;;6138335;28;20138;-70
2023/11/07 08:42:25;;;;;;;3.00;1.52;;;14.90;54.90;;;;;;6137431;28;20177;-70
2023/11/07 08:45:26;;;;;;;5.90;1.70;;;15.00;54.70;;;;;;6137539;28;20522;-70
2023/11/07 08:48:28;;;;;;;3.28;1.63;;;15.00;54.20;;;;;;6139010;28;20031;-68
2023/11/07 08:51:29;;;;;;;5.75;1.90;;;15.10;54.30;;;;;;6139151;28;20038;-68
2023/11/07 08:54:30;;;;;;;5.57;1.75;;;15.20;54.30;;;;;;6137454;28;20695;-69
2023/11/07 08:57:38;;;;;;;4.38;1.58;;;15.40;54.20;;;;;;6137695;28;20031;-69
2023/11/07 09:00:39;;;;;;;6.32;1.83;;;15.40;53.40;;;;;;6139015;28;20031;-68
2023/11/07 09:03:40;;;;;;;11.20;2.55;;;15.40;53.40;;;;;;6218366;28;20115;-69
2023/11/07 09:06:41;;;;;;;3.78;1.60;;;15.40;53.60;;;;;;6263896;28;20031;-68
2023/11/07 09:09:42;;;;;;;3.20;1.67;;;15.40;53.60;;;;;;6262093;28;20048;-70
2023/11/07 09:12:43;;;;;;;4.97;2.00;;;15.50;53.50;;;;;;6263469;28;20026;-68
2023/11/07 09:15:44;;;;;;;4.82;1.83;;;15.60;53.40;;;;;;6264700;28;20025;-69
2023/11/07 09:18:46;;;;;;;6.00;1.10;;;15.60;53.20;;;;;;6171186;28;20061;-70
2023/11/07 09:21:47;;;;;;;3.33;1.25;;;15.50;53.20;;;;;;6142936;28;20492;-69
2023/11/07 09:24:48;;;;;;;2.67;1.23;;;15.50;52.90;;;;;;6141763;28;20110;-68
2023/11/07 09:27:51;;;;;;;2.67;1.13;;;15.50;52.90;;;;;;6143762;28;20038;-69
2023/11/07 09:30:52;;;;;;;3.42;1.20;;;15.40;52.40;;;;;;6143791;28;20452;-71
2023/11/07 09:33:53;;;;;;;3.80;1.25;;;15.40;52.50;;;;;;6125517;28;20092;-69
2023/11/07 09:36:54;;;;;;;4.45;1.35;;;15.40;52.70;;;;;;6143301;28;20151;-69
2023/11/07 09:39:55;;;;;;;4.43;1.90;;;15.50;52.90;;;;;;6142395;28;20043;-70
2023/11/07 09:42:56;;;;;;;3.28;1.77;;;15.60;52.90;;;;;;6142596;28;20114;-69
2023/11/07 09:46:01;;;;;;;6.80;1.60;;;15.70;52.70;;;;;;6141340;28;20031;-68
2023/11/07 09:49:03;;;;;;;4.13;1.73;;;15.90;52.60;;;;;;6142638;28;20028;-70
2023/11/07 09:52:06;;;;;;;12.00;3.25;;;16.00;52.40;;;;;;6142192;28;20036;-69
2023/11/07 09:55:08;;;;;;;10.77;2.70;;;16.10;52.10;;;;;;6124674;29;20738;-68
2023/11/07 09:58:19;;;;;;;4.35;1.73;;;16.30;51.70;;;;;;6140591;28;20058;-69
2023/11/07 10:01:21;;;;;;;7.05;1.75;;;16.50;51.40;;;;;;6142082;28;20046;-68
2023/11/07 10:04:25;;;;;;;9.77;2.10;;;16.60;51.50;;;;;;6249336;28;20032;-69
2023/11/07 10:07:26;;;;;;;11.95;2.30;;;16.60;51.20;;;;;;6266768;28;20146;-67
2023/11/07 10:10:27;;;;;;;4.53;1.80;;;16.60;51.20;;;;;;6265356;28;20037;-70
2023/11/07 10:13:27;;;;;;;9.07;1.80;;;16.60;51.10;;;;;;6239914;28;20141;-68
2023/11/07 10:16:36;;;;;;;6.35;1.42;;;16.60;50.90;;;;;;6142684;28;20134;-68
2023/11/07 10:19:37;;;;;;;2.08;1.30;;;16.60;50.90;;;;;;6141437;28;20031;-69
2023/11/07 10:22:46;;;;;;;4.35;1.50;;;16.60;50.90;;;;;;6142312;28;20062;-70
2023/11/07 10:25:50;;;;;;;3.50;1.38;;;16.60;50.80;;;;;;6142100;28;20122;-68
2023/11/07 10:29:14;;;;;;;8.85;1.60;;;16.60;50.70;;;;;;6124507;28;20062;-70
2023/11/07 10:32:14;;;;;;;6.43;1.85;;;16.60;50.50;;;;;;6140939;28;20035;-70
2023/11/07 10:35:15;;;;;;;6.85;1.85;;;16.70;50.20;;;;;;6140734;28;20142;-70
2023/11/07 10:38:16;;;;;;;4.93;2.20;;;16.70;50.20;;;;;;6141703;29;20073;-69
2023/11/07 10:41:28;;;;;;;11.07;1.95;;;16.80;50.20;;;;;;6140600;28;20125;-68
2023/11/07 10:44:29;;;;;;;6.25;1.70;;;16.80;50.10;;;;;;6144752;28;20030;-69
2023/11/07 10:47:35;;;;;;;5.22;2.10;;;16.80;50.00;;;;;;6141756;29;20531;-69
2023/11/07 10:50:37;;;;;;;9.02;2.15;;;16.70;49.90;;;;;;6141490;28;20098;-70
2023/11/07 10:53:44;;;;;;;5.20;2.42;;;16.60;50.00;;;;;;6140333;28;20062;-69
2023/11/07 10:56:45;;;;;;;4.57;1.92;;;16.50;50.20;;;;;;6142573;28;20035;-70
2023/11/07 10:59:48;;;;;;;10.95;2.05;;;16.40;50.50;;;;;;6147345;28;20099;-70
2023/11/07 11:02:55;;;;;;;9.75;2.00;;;16.40;50.70;;;;;;6168597;28;20465;-69
2023/11/07 11:05:57;;;;;;;5.40;1.90;;;16.40;50.90;;;;;;6264690;28;20067;-70
2023/11/07 11:09:06;;;;;;;8.43;1.77;;;16.50;50.70;;;;;;6264077;28;20029;-68
2023/11/07 11:12:08;;;;;;;8.27;1.85;;;16.80;50.30;;;;;;6128645;28;20363;-69
2023/11/07 11:15:10;;;;;;;9.15;3.08;;;17.20;49.80;;;;;;6139081;28;20046;-69
2023/11/07 11:18:25;;;;;;;5.05;1.90;;;17.40;49.10;;;;;;6139103;28;20603;-70
2023/11/07 11:22:00;;;;;;;9.13;2.30;;;17.60;49.10;;;;;;6123627;28;20453;-68
2023/11/07 11:25:35;;;;;;;7.57;1.67;;;17.70;49.10;;;;;;6137770;28;20074;-70
2023/11/07 11:28:41;;;;;;;5.20;2.08;;;17.90;48.70;;;;;;6134078;28;20039;-69
2023/11/07 11:31:42;;;;;;;9.98;2.35;;;17.90;48.60;;;;;;6135018;28;20936;-70
2023/11/07 11:34:43;;;;;;;3.05;1.73;;;18.20;48.40;;;;;;6152667;28;20361;-69
2023/11/07 11:38:09;;;;;;;9.45;2.30;;;19.00;47.30;;;;;;6149119;28;20037;-69
2023/11/07 11:41:10;;;;;;;3.78;1.75;;;19.80;45.90;;;;;;6151697;28;20078;-68
2023/11/07 11:44:13;;;;;;;21.10;2.20;;;20.40;44.60;;;;;;6153145;28;20072;-71
2023/11/07 11:47:52;;;;;;;4.90;1.40;;;21.10;43.80;;;;;;6149059;28;20629;-68
2023/11/07 11:51:32;;;;;;;5.40;1.70;;;21.60;41.90;;;;;;6150226;28;20102;-69
2023/11/07 11:54:33;;;;;;;3.13;1.23;;;21.60;42.00;;;;;;6142391;28;20384;-70
2023/11/07 11:58:11;;;;;;;5.32;1.55;;;21.20;42.00;;;;;;6179725;28;20038;-69
2023/11/07 12:01:12;;;;;;;4.55;1.27;;;20.80;42.70;;;;;;6174943;28;20034;-69
2023/11/07 12:04:47;;;;;;;3.17;1.33;;;20.50;43.20;;;;;;6172810;28;20189;-70
2023/11/07 12:07:49;;;;;;;3.90;1.02;;;20.10;43.40;;;;;;6151837;28;20039;-71
2023/11/07 12:10:56;;;;;;;1.95;0.82;;;19.80;43.20;;;;;;6152094;28;20203;-70
2023/11/07 12:14:03;;;;;;;1.60;0.63;;;19.50;43.30;;;;;;6157407;28;20034;-71
2023/11/07 12:17:04;;;;;;;4.13;0.60;;;19.30;43.10;;;;;;6159388;28;20039;-70
2023/11/07 12:20:14;;;;;;;5.43;1.05;;;19.10;43.10;;;;;;6156591;28;20458;-68
2023/11/07 12:23:25;;;;;;;6.30;1.75;;;19.00;43.50;;;;;;6164094;28;20506;-69
2023/11/07 12:26:39;;;;;;;2.53;1.08;;;18.90;44.10;;;;;;6177702;28;20022;-70
2023/11/07 12:29:40;;;;;;;4.57;1.70;;;18.90;44.50;;;;;;6173086;28;20042;-69
2023/11/07 12:32:41;;;;;;;4.15;1.20;;;18.90;44.80;;;;;;6145278;28;20024;-69
2023/11/07 12:35:41;;;;;;;2.45;1.08;;;18.80;44.80;;;;;;6138707;28;20486;-69
2023/11/07 12:38:43;;;;;;;3.38;1.42;;;18.70;44.60;;;;;;6139355;28;20318;-69
2023/11/07 12:41:44;;;;;;;3.50;1.02;;;18.70;44.70;;;;;;6139513;28;20039;-68
2023/11/07 12:44:49;;;;;;;3.25;1.55;;;18.60;44.90;;;;;;6139508;28;20070;-71
2023/11/07 12:47:56;;;;;;;5.18;1.42;;;18.50;44.80;;;;;;6138395;28;20047;-72
2023/11/07 12:50:56;;;;;;;6.88;1.83;;;18.40;45.50;;;;;;6136424;28;20035;-70
2023/11/07 12:54:04;;;;;;;5.18;1.70;;;18.20;45.20;;;;;;6136780;28;20039;-69
2023/11/07 12:57:05;;;;;;;2.85;1.38;;;18.10;45.60;;;;;;6121717;29;20031;-69
2023/11/07 13:00:07;;;;;;;0.95;0.77;;;17.90;45.60;;;;;;6136848;28;20119;-70
2023/11/07 13:03:09;;;;;;;1.95;1.02;;;17.90;45.40;;;;;;6116175;28;20383;-69
2023/11/07 13:06:13;;;;;;;3.15;1.58;;;17.80;45.40;;;;;;6114402;28;20054;-68
2023/11/07 13:09:15;;;;;;;4.18;1.45;;;17.80;45.60;;;;;;6112804;28;20028;-68
2023/11/07 13:12:19;;;;;;;6.28;1.85;;;17.80;45.80;;;;;;6120450;28;20080;-71
2023/11/07 13:15:20;;;;;;;5.70;1.58;;;17.70;45.80;;;;;;6121186;28;20079;-68
2023/11/07 13:18:22;;;;;;;5.93;1.20;;;17.70;45.80;;;;;;6137380;28;20137;-70
2023/11/07 13:21:23;;;;;;;11.18;1.95;;;17.70;46.00;;;;;;6139053;28;20031;-69
2023/11/07 13:24:25;;;;;;;16.67;2.25;;;17.70;46.20;;;;;;6144176;28;20126;-70
2023/11/07 13:27:26;;;;;;;7.35;2.28;;;17.60;46.60;;;;;;6159989;28;20047;-69
2023/11/07 13:30:27;;;;;;;5.15;2.10;;;17.60;47.00;;;;;;6161413;28;20120;-67
2023/11/07 13:33:28;;;;;;;6.88;2.53;;;17.60;47.40;;;;;;6136591;28;20035;-69
2023/11/07 13:36:29;;;;;;;4.78;2.05;;;17.60;47.50;;;;;;6138075;28;20035;-68
2023/11/07 13:39:30;;;;;;;4.78;1.77;;;17.80;47.60;;;;;;6138278;28;20451;-69
2023/11/07 13:42:31;;;;;;;3.08;1.85;;;17.90;47.60;;;;;;6138618;29;20126;-69
2023/11/07 13:45:32;;;;;;;2.15;0.50;;;18.00;47.50;;;;;;6137383;28;20089;-69
2023/11/07 13:48:33;;;;;;;3.03;0.80;;;18.10;47.00;;;;;;6138041;28;20065;-68
2023/11/07 13:51:38;;;;;;;1.13;0.85;;;18.10;45.90;;;;;;6137945;29;20023;-70
2023/11/07 13:54:39;;;;;;;0.95;0.60;;;18.10;45.50;;;;;;6138710;28;20451;-70
2023/11/07 13:57:40;;;;;;;1.83;1.20;;;18.00;45.70;;;;;;6139261;28;20042;-70
2023/11/07 14:00:41;;;;;;;1.45;1.00;;;18.00;44.70;;;;;;6139541;28;20031;-69
2023/11/07 14:03:42;;;;;;;7.00;1.33;;;18.00;44.70;;;;;;6220216;28;20247;-68
2023/11/07 14:06:43;;;;;;;2.58;1.20;;;17.90;45.20;;;;;;6268339;28;20043;-69
2023/11/07 14:09:44;;;;;;;6.30;1.50;;;17.90;45.80;;;;;;6268296;28;20025;-68
2023/11/07 14:12:46;;;;;;;5.70;1.65;;;17.80;46.20;;;;;;6172710;28;20031;-69
2023/11/07 14:15:49;;;;;;;4.95;1.90;;;17.90;46.60;;;;;;6143732;28;20115;-70
2023/11/07 14:18:51;;;;;;;2.80;1.52;;;17.90;46.80;;;;;;6141696;28;20471;-70
2023/11/07 14:21:55;;;;;;;3.10;1.48;;;17.90;47.50;;;;;;6141424;28;20035;-68
2023/11/07 14:24:59;;;;;;;3.50;1.77;;;17.90;47.10;;;;;;6141708;28;20059;-69
2023/11/07 14:28:06;;;;;;;2.38;1.70;;;17.90;47.30;;;;;;6139571;28;20137;-69
2023/11/07 14:31:08;;;;;;;2.55;1.80;;;17.90;47.40;;;;;;6139614;29;20027;-69
2023/11/07 14:34:10;;;;;;;2.75;1.60;;;18.00;47.50;;;;;;6140997;28;20377;-70
2023/11/07 14:37:11;;;;;;;4.15;1.90;;;17.90;47.50;;;;;;6140586;28;20083;-69
2023/11/07 14:40:12;;;;;;;2.72;1.48;;;17.90;47.40;;;;;;6139082;28;20037;-69
2023/11/07 14:43:13;;;;;;;3.13;1.77;;;17.90;47.50;;;;;;6141234;28;20055;-69
2023/11/07 14:46:17;;;;;;;9.38;2.03;;;17.90;47.50;;;;;;6140576;29;20031;-68
2023/11/07 14:49:18;;;;;;;2.35;1.33;;;17.80;47.60;;;;;;6141289;28;20046;-70
2023/11/07 14:52:19;;;;;;;3.28;1.75;;;17.80;47.80;;;;;;6152248;28;20026;-69
2023/11/07 14:55:20;;;;;;;6.45;1.45;;;17.70;47.90;;;;;;6208501;28;20133;-70
2023/11/07 14:58:22;;;;;;;7.38;1.63;;;17.70;48.00;;;;;;6223094;28;20034;-69
2023/11/07 15:01:26;;;;;;;2.55;1.50;;;17.70;48.10;;;;;;6151431;28;20039;-69
2023/11/07 15:04:27;;;;;;;2.13;1.17;;;17.70;48.00;;;;;;6160913;28;20027;-69
2023/11/07 15:07:28;;;;;;;3.35;1.73;;;17.80;48.00;;;;;;6151425;28;20401;-69
2023/11/07 15:10:30;;;;;;;4.90;1.70;;;17.80;47.80;;;;;;6151573;28;20145;-69
2023/11/07 15:13:31;;;;;;;8.70;2.38;;;17.80;47.70;;;;;;6159176;28;20047;-70
2023/11/07 15:16:32;;;;;;;3.20;1.42;;;17.80;47.60;;;;;;6134945;28;20144;-69
2023/11/07 15:19:33;;;;;;;7.90;1.00;;;17.80;47.70;;;;;;6152589;28;20117;-68
2023/11/07 15:22:34;;;;;;;5.40;1.10;;;17.70;47.80;;;;;;6128699;28;20039;-68
2023/11/07 15:25:37;;;;;;;2.55;1.58;;;17.70;48.00;;;;;;6138907;28;20031;-69
2023/11/07 15:28:39;;;;;;;2.55;1.50;;;17.60;47.90;;;;;;6140185;28;20088;-68
2023/11/07 15:31:44;;;;;;;4.13;1.50;;;17.60;48.00;;;;;;6143247;28;20652;-70
2023/11/07 15:34:45;;;;;;;4.97;1.60;;;17.60;48.00;;;;;;6163171;28;20034;-67
2023/11/07 15:37:47;;;;;;;4.82;1.17;;;17.60;48.00;;;;;;6144396;28;20039;-69
2023/11/07 15:40:48;;;;;;;7.60;1.75;;;17.60;48.10;;;;;;6139900;28;20768;-71
2023/11/07 15:43:51;;;;;;;3.35;1.15;;;17.50;48.10;;;;;;6139740;28;20027;-70
2023/11/07 15:46:52;;;;;;;2.35;1.00;;;17.40;48.00;;;;;;6133477;28;20034;-69
2023/11/07 15:49:53;;;;;;;2.72;1.30;;;17.30;48.00;;;;;;6140260;28;20047;-69